createdAt,value
2022-11-06T00:00:45.940Z,6.19
2022-11-06T00:01:45.941Z,6.17
2022-11-06T00:02:45.984Z,6.17
2022-11-06T00:03:45.925Z,6.19
2022-11-06T00:04:45.891Z,6.22
2022-11-06T00:05:45.871Z,6.25
2022-11-06T00:06:45.864Z,6.29
2022-11-06T00:07:45.851Z,6.31
2022-11-06T00:08:45.858Z,6.35
2022-11-06T00:09:45.832Z,6.38
2022-11-06T00:10:45.811Z,6.41
2022-11-06T00:11:45.808Z,6.43
2022-11-06T00:12:45.782Z,6.44
2022-11-06T00:13:45.801Z,6.46
2022-11-06T00:14:45.763Z,6.47
2022-11-06T00:15:46.011Z,6.50
2022-11-06T00:16:45.743Z,6.53
2022-11-06T00:17:45.714Z,6.56
2022-11-06T00:18:45.730Z,6.57
2022-11-06T00:19:45.691Z,6.57
2022-11-06T00:20:45.681Z,6.59
2022-11-06T00:21:45.660Z,6.56
2022-11-06T00:22:45.660Z,6.57
2022-11-06T00:23:45.650Z,6.59
2022-11-06T00:24:45.631Z,6.62
2022-11-06T00:25:45.610Z,6.67
2022-11-06T00:26:48.731Z,6.68
2022-11-06T00:27:46.591Z,6.70
2022-11-06T00:28:45.599Z,6.72
2022-11-06T00:29:45.561Z,6.72
2022-11-06T00:30:45.548Z,6.70
2022-11-06T00:31:45.531Z,6.70
2022-11-06T00:32:45.521Z,6.71
2022-11-06T00:33:45.533Z,6.74
2022-11-06T00:34:45.501Z,6.75
2022-11-06T00:35:45.480Z,6.80
2022-11-06T00:36:45.478Z,6.80
2022-11-06T00:37:45.463Z,6.80
2022-11-06T00:38:45.444Z,6.82
2022-11-06T00:39:45.441Z,6.80
2022-11-06T00:40:45.418Z,6.82
2022-11-06T00:41:45.400Z,6.82
2022-11-06T00:42:45.399Z,6.83
2022-11-06T00:43:45.383Z,6.86
2022-11-06T00:44:45.381Z,6.86
2022-11-06T00:45:45.340Z,6.86
2022-11-06T00:46:45.341Z,6.87
2022-11-06T00:47:45.322Z,6.86
2022-11-06T00:48:45.313Z,6.86
2022-11-06T00:49:45.310Z,6.87
2022-11-06T00:50:45.298Z,6.87
2022-11-06T00:51:45.271Z,6.87
2022-11-06T00:52:45.271Z,6.86
2022-11-06T00:53:45.251Z,6.86
2022-11-06T00:54:45.252Z,6.86
2022-11-06T00:55:45.220Z,6.83
2022-11-06T00:56:45.223Z,6.83
2022-11-06T00:57:45.191Z,6.82
2022-11-06T00:58:45.203Z,6.83
2022-11-06T00:59:45.180Z,6.85
2022-11-06T01:00:45.161Z,6.85
2022-11-06T01:01:45.353Z,6.87
2022-11-06T01:02:45.237Z,6.90
2022-11-06T01:03:45.114Z,6.92
2022-11-06T01:04:45.131Z,6.96
2022-11-06T01:05:45.092Z,6.96
2022-11-06T01:06:45.089Z,6.96
2022-11-06T01:07:45.061Z,7.00
2022-11-06T01:08:45.071Z,7.00
2022-11-06T01:09:45.050Z,7.01
2022-11-06T01:10:45.034Z,7.04
2022-11-06T01:12:12.828Z,7.05
2022-11-06T01:12:46.009Z,7.07
2022-11-06T01:13:44.991Z,7.10
2022-11-06T01:14:45.002Z,7.10
2022-11-06T01:15:44.990Z,7.13
2022-11-06T01:16:44.960Z,7.13
2022-11-06T01:17:44.933Z,7.15
2022-11-06T01:18:44.979Z,7.15
2022-11-06T01:19:44.937Z,7.11
2022-11-06T01:20:44.900Z,7.10
2022-11-06T01:21:44.893Z,7.07
2022-11-06T01:22:44.878Z,7.07
2022-11-06T01:23:44.864Z,7.05
2022-11-06T01:24:44.895Z,7.05
2022-11-06T01:25:44.838Z,7.07
2022-11-06T01:27:04.882Z,7.07
2022-11-06T01:27:45.820Z,7.08
2022-11-06T01:28:44.811Z,7.10
2022-11-06T01:29:44.802Z,7.08
2022-11-06T01:30:44.785Z,7.08
2022-11-06T01:31:44.771Z,7.07
2022-11-06T01:32:44.747Z,7.05
2022-11-06T01:33:44.745Z,7.03
2022-11-06T01:34:44.770Z,7.01
2022-11-06T01:35:44.729Z,7.01
2022-11-06T01:36:44.809Z,7.01
2022-11-06T01:37:44.697Z,7.04
2022-11-06T01:38:44.671Z,7.05
2022-11-06T01:39:44.675Z,7.08
2022-11-06T01:40:44.646Z,7.07
2022-11-06T01:41:44.643Z,7.10
2022-11-06T01:42:44.610Z,7.10
2022-11-06T01:43:44.601Z,7.11
2022-11-06T01:44:44.610Z,7.14
2022-11-06T01:45:44.590Z,7.18
2022-11-06T01:46:44.562Z,7.18
2022-11-06T01:47:44.559Z,7.14
2022-11-06T01:48:44.540Z,7.14
2022-11-06T01:49:44.542Z,7.15
2022-11-06T01:50:44.527Z,7.19
2022-11-06T01:51:44.501Z,7.22
2022-11-06T01:52:44.491Z,7.22
2022-11-06T01:53:44.471Z,7.23
2022-11-06T01:54:44.470Z,7.25
2022-11-06T01:55:44.470Z,7.26
2022-11-06T01:56:44.431Z,7.26
2022-11-06T01:57:44.423Z,7.26
2022-11-06T01:58:44.412Z,7.26
2022-11-06T01:59:44.428Z,7.29
2022-11-06T02:00:44.381Z,7.28
2022-11-06T02:01:44.521Z,7.26
2022-11-06T02:02:44.488Z,7.25
2022-11-06T02:03:44.341Z,7.22
2022-11-06T02:04:44.330Z,7.21
2022-11-06T02:05:44.352Z,7.19
2022-11-06T02:06:44.301Z,7.23
2022-11-06T02:07:44.300Z,7.23
2022-11-06T02:08:44.288Z,7.26
2022-11-06T02:09:44.277Z,7.29
2022-11-06T02:10:44.270Z,7.32
2022-11-06T02:11:44.240Z,7.32
2022-11-06T02:12:44.239Z,7.31
2022-11-06T02:13:44.210Z,7.32
2022-11-06T02:14:44.199Z,7.36
2022-11-06T02:15:44.229Z,7.33
2022-11-06T02:16:44.170Z,7.32
2022-11-06T02:17:44.159Z,7.32
2022-11-06T02:18:44.140Z,7.33
2022-11-06T02:19:44.151Z,7.33
2022-11-06T02:20:44.148Z,7.33
2022-11-06T02:21:44.119Z,7.36
2022-11-06T02:22:44.109Z,7.33
2022-11-06T02:23:44.088Z,7.36
2022-11-06T02:24:44.078Z,7.37
2022-11-06T02:25:44.091Z,7.37
2022-11-06T02:26:44.050Z,7.36
2022-11-06T02:27:44.039Z,7.37
2022-11-06T02:28:44.028Z,7.37
2022-11-06T02:29:44.023Z,7.36
2022-11-06T02:30:44.020Z,7.36
2022-11-06T02:31:43.994Z,7.36
2022-11-06T02:32:43.979Z,7.36
2022-11-06T02:33:43.975Z,7.36
2022-11-06T02:34:43.948Z,7.37
2022-11-06T02:35:43.963Z,7.33
2022-11-06T02:36:43.928Z,7.37
2022-11-06T02:37:43.916Z,7.37
2022-11-06T02:38:43.890Z,7.41
2022-11-06T02:39:43.879Z,7.43
2022-11-06T02:40:43.908Z,7.44
2022-11-06T02:41:43.874Z,7.46
2022-11-06T02:42:43.830Z,7.46
2022-11-06T02:43:43.830Z,7.44
2022-11-06T02:44:43.810Z,7.43
2022-11-06T02:45:43.828Z,7.44
2022-11-06T02:46:43.802Z,7.44
2022-11-06T02:47:43.775Z,7.47
2022-11-06T02:48:43.767Z,7.50
2022-11-06T02:49:43.759Z,7.53
2022-11-06T02:50:43.758Z,7.55
2022-11-06T02:51:43.734Z,7.53
2022-11-06T02:52:43.709Z,7.56
2022-11-06T02:53:43.708Z,7.59
2022-11-06T02:54:43.680Z,7.59
2022-11-06T02:55:43.696Z,7.59
2022-11-06T02:56:43.670Z,7.61
2022-11-06T02:57:43.650Z,7.61
2022-11-06T02:58:48.810Z,7.61
2022-11-06T02:59:44.631Z,7.59
2022-11-06T03:00:43.631Z,7.58
2022-11-06T03:01:43.689Z,7.58
2022-11-06T03:02:43.657Z,7.58
2022-11-06T03:03:43.567Z,7.56
2022-11-06T03:04:43.548Z,7.59
2022-11-06T03:05:43.567Z,7.59
2022-11-06T03:06:43.520Z,7.59
2022-11-06T03:07:43.521Z,7.62
2022-11-06T03:08:43.500Z,7.62
2022-11-06T03:09:43.497Z,7.61
2022-11-06T03:10:43.496Z,7.61
2022-11-06T03:11:43.461Z,7.61
2022-11-06T03:12:43.458Z,7.61
2022-11-06T03:13:43.439Z,7.61
2022-11-06T03:14:43.425Z,7.61
2022-11-06T03:15:43.419Z,7.59
2022-11-06T03:16:43.417Z,7.61
2022-11-06T03:17:43.386Z,7.61
2022-11-06T03:18:43.378Z,7.61
2022-11-06T03:19:43.368Z,7.59
2022-11-06T03:20:43.348Z,7.59
2022-11-06T03:21:43.338Z,7.59
2022-11-06T03:22:43.319Z,7.56
2022-11-06T03:23:43.319Z,7.56
2022-11-06T03:24:43.288Z,7.55
2022-11-06T03:25:43.307Z,7.58
2022-11-06T03:26:43.266Z,7.58
2022-11-06T03:27:43.260Z,7.59
2022-11-06T03:28:43.247Z,7.58
2022-11-06T03:29:43.243Z,7.56
2022-11-06T03:30:43.240Z,7.56
2022-11-06T03:31:43.209Z,7.55
2022-11-06T03:32:43.191Z,7.55
2022-11-06T03:33:43.169Z,7.55
2022-11-06T03:34:43.166Z,7.55
2022-11-06T03:35:43.177Z,7.53
2022-11-06T03:36:43.132Z,7.50
2022-11-06T03:37:43.132Z,7.48
2022-11-06T03:38:43.176Z,7.47
2022-11-06T03:39:43.111Z,7.44
2022-11-06T03:40:43.118Z,7.41
2022-11-06T03:41:43.079Z,7.43
2022-11-06T03:42:43.075Z,7.41
2022-11-06T03:43:43.061Z,7.40
2022-11-06T03:44:43.036Z,7.39
2022-11-06T03:45:43.037Z,7.37
2022-11-06T03:46:43.040Z,7.37
2022-11-06T03:47:43.007Z,7.36
2022-11-06T03:48:42.979Z,7.37
2022-11-06T03:49:42.980Z,7.39
2022-11-06T03:50:43.012Z,7.40
2022-11-06T03:51:42.949Z,7.43
2022-11-06T03:52:43.414Z,7.43
2022-11-06T03:53:42.928Z,7.47
2022-11-06T03:54:42.898Z,7.48
2022-11-06T03:55:42.928Z,7.51
2022-11-06T03:56:42.880Z,7.51
2022-11-06T03:57:42.869Z,7.51
2022-11-06T03:58:42.898Z,7.51
2022-11-06T03:59:42.849Z,7.53
2022-11-06T04:00:42.828Z,7.55
2022-11-06T04:01:42.980Z,7.53
2022-11-06T04:02:43.007Z,7.50
2022-11-06T04:03:42.801Z,7.48
2022-11-06T04:04:42.782Z,7.48
2022-11-06T04:05:42.768Z,7.50
2022-11-06T04:06:42.767Z,7.51
2022-11-06T04:07:42.738Z,7.50
2022-11-06T04:08:42.728Z,7.53
2022-11-06T04:09:42.719Z,7.51
2022-11-06T04:10:42.701Z,7.51
2022-11-06T04:11:42.736Z,7.50
2022-11-06T04:12:42.671Z,7.50
2022-11-06T04:13:42.669Z,7.48
2022-11-06T04:14:42.658Z,7.48
2022-11-06T04:15:42.639Z,7.50
2022-11-06T04:16:42.682Z,7.50
2022-11-06T04:17:42.619Z,7.50
2022-11-06T04:18:42.589Z,7.50
2022-11-06T04:19:42.582Z,7.51
2022-11-06T04:20:42.578Z,7.53
2022-11-06T04:21:42.580Z,7.53
2022-11-06T04:22:42.548Z,7.53
2022-11-06T04:23:42.539Z,7.53
2022-11-06T04:24:42.517Z,7.56
2022-11-06T04:25:42.509Z,7.58
2022-11-06T04:26:42.519Z,7.62
2022-11-06T04:27:42.490Z,7.62
2022-11-06T04:28:42.469Z,7.62
2022-11-06T04:29:42.462Z,7.62
2022-11-06T04:30:42.450Z,7.62
2022-11-06T04:31:42.450Z,7.62
2022-11-06T04:32:42.407Z,7.62
2022-11-06T04:33:42.408Z,7.64
2022-11-06T04:34:42.390Z,7.67
2022-11-06T04:35:42.377Z,7.64
2022-11-06T04:36:42.382Z,7.66
2022-11-06T04:37:42.360Z,7.64
2022-11-06T04:38:42.341Z,7.66
2022-11-06T04:39:42.339Z,7.66
2022-11-06T04:40:42.309Z,7.67
2022-11-06T04:41:42.319Z,7.62
2022-11-06T04:42:42.290Z,7.62
2022-11-06T04:43:42.280Z,7.61
2022-11-06T04:44:42.259Z,7.59
2022-11-06T04:45:42.250Z,7.56
2022-11-06T04:46:42.300Z,7.58
2022-11-06T04:47:42.220Z,7.58
2022-11-06T04:48:42.208Z,7.59
2022-11-06T04:49:42.207Z,7.58
2022-11-06T04:50:42.176Z,7.56
2022-11-06T04:51:42.172Z,7.58
2022-11-06T04:52:42.171Z,7.58
2022-11-06T04:53:42.150Z,7.58
2022-11-06T04:54:42.129Z,7.58
2022-11-06T04:55:42.120Z,7.59
2022-11-06T04:56:46.005Z,7.61
2022-11-06T04:57:42.101Z,7.58
2022-11-06T04:58:42.091Z,7.58
2022-11-06T04:59:42.076Z,7.56
2022-11-06T05:00:42.116Z,7.56
2022-11-06T05:01:42.156Z,7.53
2022-11-06T05:02:42.048Z,7.50
2022-11-06T05:03:42.080Z,7.48
2022-11-06T05:04:41.990Z,7.46
2022-11-06T05:05:41.990Z,7.41
2022-11-06T05:06:41.978Z,7.40
2022-11-06T05:07:41.991Z,7.41
2022-11-06T05:08:41.948Z,7.40
2022-11-06T05:09:41.940Z,7.41
2022-11-06T05:10:41.971Z,7.39
2022-11-06T05:11:41.908Z,7.36
2022-11-06T05:12:41.922Z,7.32
2022-11-06T05:13:41.891Z,7.31
2022-11-06T05:14:41.867Z,7.28
2022-11-06T05:15:41.939Z,7.26
2022-11-06T05:16:41.864Z,7.21
2022-11-06T05:17:41.850Z,7.18
2022-11-06T05:18:41.889Z,7.13
2022-11-06T05:19:41.811Z,7.07
2022-11-06T05:20:41.781Z,7.01
2022-11-06T05:21:41.779Z,6.97
2022-11-06T05:22:41.793Z,6.95
2022-11-06T05:23:41.771Z,6.90
2022-11-06T05:24:41.714Z,6.89
2022-11-06T05:25:41.740Z,6.86
2022-11-06T05:26:41.736Z,6.83
2022-11-06T05:27:41.718Z,6.80
2022-11-06T05:28:41.690Z,6.78
2022-11-06T05:29:41.680Z,6.75
2022-11-06T05:30:41.671Z,6.74
2022-11-06T05:31:41.664Z,6.71
2022-11-06T05:32:41.649Z,6.68
2022-11-06T05:33:41.631Z,6.67
2022-11-06T05:34:41.610Z,6.68
2022-11-06T05:35:41.592Z,6.64
2022-11-06T05:36:41.590Z,6.60
2022-11-06T05:37:41.581Z,6.57
2022-11-06T05:38:41.592Z,6.56
2022-11-06T05:39:42.125Z,6.56
2022-11-06T05:40:41.540Z,6.53
2022-11-06T05:41:41.498Z,6.50
2022-11-06T05:42:41.533Z,6.46
2022-11-06T05:43:41.490Z,6.44
2022-11-06T05:44:41.491Z,6.39
2022-11-06T05:45:41.467Z,6.36
2022-11-06T05:46:50.087Z,6.34
2022-11-06T05:47:42.451Z,6.31
2022-11-06T05:48:41.427Z,6.29
2022-11-06T05:49:41.420Z,6.28
2022-11-06T05:50:41.423Z,6.29
2022-11-06T05:51:41.399Z,6.31
2022-11-06T05:52:41.419Z,6.29
2022-11-06T05:53:41.363Z,6.29
2022-11-06T05:54:41.358Z,6.25
2022-11-06T05:55:41.339Z,6.17
2022-11-06T05:56:41.331Z,6.12
2022-11-06T05:57:41.368Z,6.09
2022-11-06T05:58:41.315Z,6.06
2022-11-06T05:59:41.291Z,6.02
2022-11-06T06:00:41.281Z,6.01
2022-11-06T06:01:41.422Z,5.99
2022-11-06T06:02:41.462Z,5.95
2022-11-06T06:03:41.239Z,5.94
2022-11-06T06:04:41.240Z,5.92
2022-11-06T06:05:41.207Z,5.90
2022-11-06T06:06:41.199Z,5.87
2022-11-06T06:07:41.181Z,5.84
2022-11-06T06:08:41.192Z,5.81
2022-11-06T06:09:41.168Z,5.77
2022-11-06T06:10:41.160Z,5.76
2022-11-06T06:11:41.139Z,5.76
2022-11-06T06:12:41.131Z,5.74
2022-11-06T06:13:41.130Z,5.74
2022-11-06T06:14:41.103Z,5.74
2022-11-06T06:15:41.069Z,5.77
2022-11-06T06:16:41.091Z,5.74
2022-11-06T06:17:41.042Z,5.74
2022-11-06T06:18:41.071Z,5.73
2022-11-06T06:19:41.038Z,5.73
2022-11-06T06:20:41.024Z,5.74
2022-11-06T06:21:41.005Z,5.77
2022-11-06T06:22:41.003Z,5.76
2022-11-06T06:23:40.998Z,5.76
2022-11-06T06:24:41.058Z,5.76
2022-11-06T06:25:40.962Z,5.70
2022-11-06T06:26:40.951Z,5.67
2022-11-06T06:27:40.927Z,5.69
2022-11-06T06:28:40.940Z,5.67
2022-11-06T06:29:40.899Z,5.70
2022-11-06T06:30:40.907Z,5.70
2022-11-06T06:31:40.878Z,5.73
2022-11-06T06:32:40.909Z,5.73
2022-11-06T06:33:40.897Z,5.72
2022-11-06T06:34:40.848Z,5.69
2022-11-06T06:35:40.837Z,5.62
2022-11-06T06:36:40.825Z,5.59
2022-11-06T06:37:40.782Z,5.61
2022-11-06T06:38:40.806Z,5.61
2022-11-06T06:39:40.787Z,5.64
2022-11-06T06:40:40.763Z,5.65
2022-11-06T06:41:40.790Z,5.61
2022-11-06T06:42:40.768Z,5.61
2022-11-06T06:43:40.770Z,5.61
2022-11-06T06:44:40.732Z,5.56
2022-11-06T06:45:40.699Z,5.59
2022-11-06T06:46:40.689Z,5.64
2022-11-06T06:47:40.700Z,5.67
2022-11-06T06:48:40.693Z,5.70
2022-11-06T06:49:40.668Z,5.67
2022-11-06T06:50:40.649Z,5.69
2022-11-06T06:51:40.629Z,5.70
2022-11-06T06:52:40.617Z,5.72
2022-11-06T06:53:40.609Z,5.72
2022-11-06T06:54:40.588Z,5.73
2022-11-06T06:55:40.583Z,5.74
2022-11-06T06:56:40.561Z,5.74
2022-11-06T06:57:40.576Z,5.74
2022-11-06T06:58:40.559Z,5.77
2022-11-06T06:59:40.588Z,5.77
2022-11-06T07:00:40.550Z,5.80
2022-11-06T07:01:40.665Z,5.79
2022-11-06T07:02:40.516Z,5.79
2022-11-06T07:03:40.486Z,5.79
2022-11-06T07:04:40.439Z,5.80
2022-11-06T07:05:40.449Z,5.83
2022-11-06T07:06:40.450Z,5.87
2022-11-06T07:07:40.409Z,5.90
2022-11-06T07:08:40.423Z,5.90
2022-11-06T07:09:40.388Z,5.92
2022-11-06T07:10:40.403Z,5.94
2022-11-06T07:11:40.372Z,5.97
2022-11-06T07:12:40.349Z,5.99
2022-11-06T07:13:40.340Z,6.02
2022-11-06T07:14:40.346Z,6.05
2022-11-06T07:15:40.308Z,6.07
2022-11-06T07:16:40.299Z,6.10
2022-11-06T07:17:40.323Z,6.12
2022-11-06T07:18:40.291Z,6.15
2022-11-06T07:19:40.283Z,6.19
2022-11-06T07:20:40.252Z,6.25
2022-11-06T07:21:40.227Z,6.25
2022-11-06T07:22:40.217Z,6.29
2022-11-06T07:23:40.214Z,6.32
2022-11-06T07:24:40.257Z,6.35
2022-11-06T07:25:40.177Z,6.38
2022-11-06T07:26:40.168Z,6.44
2022-11-06T07:27:40.189Z,6.50
2022-11-06T07:28:40.148Z,6.56
2022-11-06T07:29:40.149Z,6.60
2022-11-06T07:30:40.142Z,6.65
2022-11-06T07:31:40.105Z,6.70
2022-11-06T07:32:40.119Z,6.72
2022-11-06T07:33:40.079Z,6.75
2022-11-06T07:34:40.098Z,6.78
2022-11-06T07:35:40.048Z,6.80
2022-11-06T07:36:40.053Z,6.82
2022-11-06T07:37:40.063Z,6.85
2022-11-06T07:38:40.048Z,6.87
2022-11-06T07:39:40.029Z,6.93
2022-11-06T07:40:39.998Z,6.95
2022-11-06T07:41:39.975Z,6.97
2022-11-06T07:42:43.471Z,7.01
2022-11-06T07:43:39.968Z,7.03
2022-11-06T07:44:39.987Z,7.05
2022-11-06T07:45:39.917Z,7.08
2022-11-06T07:46:39.919Z,7.11
2022-11-06T07:47:39.904Z,7.14
2022-11-06T07:48:39.923Z,7.19
2022-11-06T07:49:39.887Z,7.22
2022-11-06T07:50:39.835Z,7.22
2022-11-06T07:51:39.849Z,7.23
2022-11-06T07:52:39.832Z,7.28
2022-11-06T07:53:39.880Z,7.29
2022-11-06T07:54:39.848Z,7.31
2022-11-06T07:55:42.342Z,7.32
2022-11-06T07:56:39.797Z,7.36
2022-11-06T07:57:39.779Z,7.33
2022-11-06T07:58:39.773Z,7.36
2022-11-06T07:59:39.757Z,7.36
2022-11-06T08:00:39.800Z,7.37
2022-11-06T08:01:39.891Z,7.41
2022-11-06T08:02:39.764Z,7.47
2022-11-06T08:03:39.702Z,7.48
2022-11-06T08:04:39.728Z,7.53
2022-11-06T08:05:39.697Z,7.55
2022-11-06T08:06:39.721Z,7.58
2022-11-06T08:07:39.649Z,7.62
2022-11-06T08:08:39.732Z,7.66
2022-11-06T08:09:39.647Z,7.67
2022-11-06T08:10:39.607Z,7.70
2022-11-06T08:11:39.619Z,7.72
2022-11-06T08:12:39.578Z,7.75
2022-11-06T08:13:39.578Z,7.77
2022-11-06T08:14:41.573Z,7.81
2022-11-06T08:15:39.542Z,7.83
2022-11-06T08:16:39.527Z,7.87
2022-11-06T08:17:39.510Z,7.90
2022-11-06T08:18:39.499Z,7.90
2022-11-06T08:19:39.551Z,7.91
2022-11-06T08:20:39.468Z,7.93
2022-11-06T08:21:39.461Z,7.96
2022-11-06T08:22:39.450Z,7.99
2022-11-06T08:23:39.426Z,8.01
2022-11-06T08:24:39.436Z,8.06
2022-11-06T08:25:39.405Z,8.09
2022-11-06T08:26:39.398Z,8.13
2022-11-06T08:27:39.440Z,8.16
2022-11-06T08:28:39.373Z,8.17
2022-11-06T08:29:41.547Z,8.18
2022-11-06T08:30:39.394Z,8.20
2022-11-06T08:31:39.347Z,8.26
2022-11-06T08:32:39.319Z,8.26
2022-11-06T08:33:39.303Z,8.28
2022-11-06T08:34:39.318Z,8.31
2022-11-06T08:35:39.288Z,8.34
2022-11-06T08:36:39.266Z,8.36
2022-11-06T08:37:39.256Z,8.39
2022-11-06T08:38:39.236Z,8.39
2022-11-06T08:39:39.275Z,8.46
2022-11-06T08:40:39.218Z,8.53
2022-11-06T08:41:39.214Z,8.59
2022-11-06T08:42:39.187Z,8.68
2022-11-06T08:43:39.181Z,8.74
2022-11-06T08:44:39.169Z,8.79
2022-11-06T08:45:39.164Z,8.86
2022-11-06T08:46:39.144Z,8.92
2022-11-06T08:47:39.116Z,8.97
2022-11-06T08:48:39.110Z,9.02
2022-11-06T08:49:39.108Z,9.08
2022-11-06T08:50:39.250Z,9.13
2022-11-06T08:51:39.075Z,9.18
2022-11-06T08:52:39.050Z,9.22
2022-11-06T08:53:39.066Z,9.26
2022-11-06T08:54:39.049Z,9.30
2022-11-06T08:55:39.083Z,9.33
2022-11-06T08:56:38.999Z,9.37
2022-11-06T08:57:39.001Z,9.39
2022-11-06T08:58:38.967Z,9.42
2022-11-06T08:59:38.968Z,9.47
2022-11-06T09:00:39.019Z,9.51
2022-11-06T09:01:39.091Z,9.54
2022-11-06T09:02:38.918Z,9.59
2022-11-06T09:03:38.908Z,9.64
2022-11-06T09:04:41.508Z,9.66
2022-11-06T09:05:38.888Z,9.67
2022-11-06T09:06:38.895Z,9.72
2022-11-06T09:07:38.885Z,9.74
2022-11-06T09:08:38.848Z,9.80
2022-11-06T09:09:38.838Z,9.82
2022-11-06T09:10:38.841Z,9.87
2022-11-06T09:11:38.810Z,9.90
2022-11-06T09:12:38.798Z,9.91
2022-11-06T09:13:38.767Z,9.97
2022-11-06T09:14:38.779Z,10.00
2022-11-06T09:15:38.748Z,10.03
2022-11-06T09:16:38.727Z,10.07
2022-11-06T09:17:38.726Z,10.12
2022-11-06T09:18:38.709Z,10.13
2022-11-06T09:19:38.705Z,10.17
2022-11-06T09:20:38.680Z,10.21
2022-11-06T09:21:38.692Z,10.24
2022-11-06T09:22:38.653Z,10.25
2022-11-06T09:23:38.667Z,10.27
2022-11-06T09:25:02.057Z,10.30
2022-11-06T09:25:39.685Z,10.33
2022-11-06T09:26:39.174Z,10.34
2022-11-06T09:27:39.718Z,10.39
2022-11-06T09:28:40.313Z,10.39
2022-11-06T09:29:38.578Z,10.38
2022-11-06T09:30:41.970Z,10.33
2022-11-06T09:31:38.586Z,10.34
2022-11-06T09:32:38.507Z,10.36
2022-11-06T09:33:38.492Z,10.39
2022-11-06T09:34:38.489Z,10.42
2022-11-06T09:35:38.488Z,10.45
2022-11-06T09:36:38.464Z,10.48
2022-11-06T09:37:38.459Z,10.51
2022-11-06T09:38:38.428Z,10.53
2022-11-06T09:39:38.419Z,10.53
2022-11-06T09:40:38.418Z,10.51
2022-11-06T09:41:38.390Z,10.53
2022-11-06T09:42:38.378Z,10.51
2022-11-06T09:44:06.788Z,10.55
2022-11-06T09:44:39.347Z,10.57
2022-11-06T09:45:38.347Z,10.61
2022-11-06T09:46:38.336Z,10.65
2022-11-06T09:47:38.309Z,10.65
2022-11-06T09:48:38.300Z,10.68
2022-11-06T09:49:38.287Z,10.68
2022-11-06T09:50:38.289Z,10.68
2022-11-06T09:51:38.264Z,10.69
2022-11-06T09:52:38.236Z,10.75
2022-11-06T09:53:38.220Z,10.76
2022-11-06T09:54:38.218Z,10.77
2022-11-06T09:55:38.250Z,10.77
2022-11-06T09:56:38.169Z,10.79
2022-11-06T09:57:38.180Z,10.80
2022-11-06T09:58:38.160Z,10.84
2022-11-06T09:59:38.148Z,10.86
2022-11-06T10:00:38.147Z,10.87
2022-11-06T10:01:38.240Z,10.89
2022-11-06T10:02:38.177Z,10.90
2022-11-06T10:03:38.080Z,10.92
2022-11-06T10:04:38.070Z,10.95
2022-11-06T10:05:38.092Z,10.98
2022-11-06T10:06:38.051Z,11.01
2022-11-06T10:07:38.041Z,11.05
2022-11-06T10:08:38.020Z,11.04
2022-11-06T10:09:38.009Z,11.01
2022-11-06T10:10:38.000Z,11.00
2022-11-06T10:11:38.002Z,10.98
2022-11-06T10:12:37.972Z,11.00
2022-11-06T10:13:37.957Z,11.08
2022-11-06T10:14:37.947Z,11.12
2022-11-06T10:15:37.948Z,11.16
2022-11-06T10:16:37.910Z,11.18
2022-11-06T10:17:37.924Z,11.12
2022-11-06T10:18:37.886Z,11.07
2022-11-06T10:19:37.880Z,11.04
2022-11-06T10:20:37.878Z,11.05
2022-11-06T10:21:37.854Z,11.08
2022-11-06T10:22:37.830Z,11.08
2022-11-06T10:23:37.830Z,11.12
2022-11-06T10:24:37.808Z,11.16
2022-11-06T10:25:37.826Z,11.18
2022-11-06T10:26:37.769Z,11.22
2022-11-06T10:27:37.772Z,11.30
2022-11-06T10:28:37.749Z,11.33
2022-11-06T10:29:37.729Z,11.34
2022-11-06T10:30:37.718Z,11.34
2022-11-06T10:31:37.741Z,11.38
2022-11-06T10:32:37.698Z,11.40
2022-11-06T10:33:37.691Z,11.45
2022-11-06T10:34:37.680Z,11.49
2022-11-06T10:35:37.650Z,11.53
2022-11-06T10:36:37.652Z,11.56
2022-11-06T10:37:37.630Z,11.59
2022-11-06T10:38:37.607Z,11.63
2022-11-06T10:39:37.612Z,11.70
2022-11-06T10:40:37.589Z,11.71
2022-11-06T10:41:37.620Z,11.76
2022-11-06T10:42:38.439Z,11.80
2022-11-06T10:43:37.550Z,11.85
2022-11-06T10:44:37.532Z,11.88
2022-11-06T10:45:37.520Z,11.86
2022-11-06T10:46:37.520Z,11.89
2022-11-06T10:47:37.508Z,11.95
2022-11-06T10:48:41.446Z,12.00
2022-11-06T10:49:37.471Z,12.03
2022-11-06T10:50:37.461Z,12.07
2022-11-06T10:51:37.468Z,12.10
2022-11-06T10:52:37.431Z,12.12
2022-11-06T10:53:37.427Z,12.15
2022-11-06T10:54:37.399Z,12.20
2022-11-06T10:55:37.398Z,12.21
2022-11-06T10:56:37.392Z,12.21
2022-11-06T10:57:37.379Z,12.21
2022-11-06T10:58:37.351Z,12.20
2022-11-06T10:59:37.351Z,12.21
2022-11-06T11:00:37.322Z,12.21
2022-11-06T11:01:37.568Z,12.21
2022-11-06T11:02:37.360Z,12.25
2022-11-06T11:03:37.299Z,12.23
2022-11-06T11:04:37.271Z,12.23
2022-11-06T11:05:37.270Z,12.26
2022-11-06T11:06:37.265Z,12.21
2022-11-06T11:07:37.241Z,12.17
2022-11-06T11:08:37.232Z,12.14
2022-11-06T11:09:37.226Z,12.15
2022-11-06T11:10:37.313Z,12.17
2022-11-06T11:11:37.213Z,12.26
2022-11-06T11:12:37.172Z,12.32
2022-11-06T11:13:37.170Z,12.37
2022-11-06T11:14:37.143Z,12.37
2022-11-06T11:15:37.143Z,12.33
2022-11-06T11:16:37.123Z,12.29
2022-11-06T11:17:37.112Z,12.29
2022-11-06T11:18:37.093Z,12.23
2022-11-06T11:19:37.082Z,12.23
2022-11-06T11:20:37.212Z,12.23
2022-11-06T11:21:37.074Z,12.18
2022-11-06T11:22:37.083Z,12.18
2022-11-06T11:23:37.023Z,12.18
2022-11-06T11:24:37.001Z,12.14
2022-11-06T11:25:37.011Z,12.07
2022-11-06T11:26:37.008Z,12.05
2022-11-06T11:27:36.970Z,11.99
2022-11-06T11:28:36.954Z,11.97
2022-11-06T11:29:36.940Z,12.00
2022-11-06T11:30:36.933Z,12.08
2022-11-06T11:31:36.952Z,12.17
2022-11-06T11:32:36.909Z,12.28
2022-11-06T11:33:36.902Z,12.33
2022-11-06T11:34:36.872Z,12.20
2022-11-06T11:35:36.892Z,12.12
2022-11-06T11:36:36.852Z,12.03
2022-11-06T11:37:36.863Z,11.93
2022-11-06T11:38:36.812Z,11.86
2022-11-06T11:39:36.822Z,11.83
2022-11-06T11:40:36.837Z,11.76
2022-11-06T11:41:36.794Z,11.74
2022-11-06T11:42:36.794Z,11.68
2022-11-06T11:43:36.766Z,11.63
2022-11-06T11:44:36.751Z,11.59
2022-11-06T11:45:36.743Z,11.56
2022-11-06T11:46:36.723Z,11.52
2022-11-06T11:47:36.848Z,11.51
2022-11-06T11:48:36.701Z,11.49
2022-11-06T11:49:36.694Z,11.52
2022-11-06T11:50:36.662Z,11.56
2022-11-06T11:51:36.663Z,11.60
2022-11-06T11:52:36.655Z,11.73
2022-11-06T11:53:36.638Z,11.78
2022-11-06T11:54:36.615Z,11.80
2022-11-06T11:55:36.619Z,11.80
2022-11-06T11:57:02.897Z,11.80
2022-11-06T11:57:37.635Z,11.77
2022-11-06T11:58:36.565Z,11.74
2022-11-06T11:59:36.563Z,11.67
2022-11-06T12:00:36.535Z,11.60
2022-11-06T12:01:36.577Z,11.56
2022-11-06T12:02:36.754Z,11.55
2022-11-06T12:03:36.515Z,11.52
2022-11-06T12:04:36.499Z,11.51
2022-11-06T12:05:36.480Z,11.55
2022-11-06T12:06:36.465Z,11.55
2022-11-06T12:07:36.471Z,11.52
2022-11-06T12:08:36.435Z,11.49
2022-11-06T12:09:36.436Z,11.44
2022-11-06T12:10:36.415Z,11.45
2022-11-06T12:11:36.415Z,11.45
2022-11-06T12:12:36.417Z,11.45
2022-11-06T12:13:36.379Z,11.52
2022-11-06T12:14:36.363Z,11.56
2022-11-06T12:15:36.359Z,11.62
2022-11-06T12:16:36.326Z,11.62
2022-11-06T12:17:36.347Z,11.67
2022-11-06T12:18:36.309Z,11.81
2022-11-06T12:19:36.304Z,11.88
2022-11-06T12:20:36.274Z,11.93
2022-11-06T12:21:36.277Z,12.00
2022-11-06T12:22:36.277Z,12.07
2022-11-06T12:23:36.245Z,12.05
2022-11-06T12:24:36.215Z,12.00
2022-11-06T12:25:36.222Z,12.10
2022-11-06T12:26:36.195Z,12.20
2022-11-06T12:27:36.215Z,12.28
2022-11-06T12:28:36.165Z,12.33
2022-11-06T12:29:36.165Z,12.33
2022-11-06T12:30:36.148Z,12.30
2022-11-06T12:31:36.155Z,12.29
2022-11-06T12:32:36.135Z,12.28
2022-11-06T12:34:04.459Z,12.25
2022-11-06T12:34:37.093Z,12.23
2022-11-06T12:35:36.087Z,12.28
2022-11-06T12:36:36.063Z,12.25
2022-11-06T12:37:36.085Z,12.23
2022-11-06T12:38:36.065Z,12.21
2022-11-06T12:39:36.036Z,12.17
2022-11-06T12:40:36.026Z,12.14
2022-11-06T12:41:36.086Z,12.12
2022-11-06T12:42:36.034Z,12.08
2022-11-06T12:43:35.977Z,12.02
2022-11-06T12:44:35.977Z,11.99
2022-11-06T12:45:35.969Z,11.93
2022-11-06T12:46:35.939Z,11.91
2022-11-06T12:47:35.940Z,11.88
2022-11-06T12:48:35.917Z,11.83
2022-11-06T12:49:35.896Z,11.83
2022-11-06T12:50:35.883Z,11.83
2022-11-06T12:51:35.860Z,11.85
2022-11-06T12:52:35.955Z,11.91
2022-11-06T12:53:35.835Z,11.99
2022-11-06T12:54:35.855Z,12.08
2022-11-06T12:55:35.825Z,12.15
2022-11-06T12:56:35.805Z,12.28
2022-11-06T12:57:35.815Z,12.36
2022-11-06T12:58:35.777Z,12.43
2022-11-06T12:59:35.796Z,12.39
2022-11-06T13:00:35.757Z,12.40
2022-11-06T13:01:35.881Z,12.40
2022-11-06T13:02:35.868Z,12.39
2022-11-06T13:03:35.799Z,12.37
2022-11-06T13:04:35.699Z,12.35
2022-11-06T13:05:35.778Z,12.32
2022-11-06T13:06:35.677Z,12.20
2022-11-06T13:07:35.673Z,12.10
2022-11-06T13:08:35.709Z,12.02
2022-11-06T13:09:35.869Z,11.96
2022-11-06T13:10:35.671Z,11.88